• Join FlightAware (Why Join?)
  • Login
  • US Flag 
03:36AM EDT


 

Airport Tracker/Info


-or-


 

Live Flight TrackerFlight Track Log ✈ CTL309 ✈ 12-Jul-2013 ✈ KOSU - KHAO

Flight Track Log - Related Links

Times and Time Zones

All times are in EDT time to prevent confusion due to time zone crossing. See the CTL309 flight status page for this flight to view local times or setup timezone preferences in your user account.

Time Position Orientation Groundspeed Altitude Reporting Facility
EDT Latitude Longitude Course Direction KTS MPH feet Rate Location/Type
03:43AM 40.0656 -83.1253 243° Southwest 145 167 1,700  Level Indianapolis Center
03:44AM 40.0433 -83.1817 243° Southwest 163 188 2,500 660 Climbing Indianapolis Center
03:45AM 40.0211 -83.2239 236° Southwest 164 189 3,100 660 Climbing Indianapolis Center
03:46AM 39.9969 -83.2761 239° Southwest 165 190 3,800 420 Climbing Indianapolis Center
03:47AM 39.9711 -83.3300 238° Southwest 170 196 4,000 60 Climbing Indianapolis Center
03:48AM 39.9425 -83.3881 237° Southwest 180 207 4,000  Level Indianapolis Center
03:49AM 39.9139 -83.4450 237° Southwest 185 213 4,000  Level Indianapolis Center
03:50AM 39.8878 -83.5028 240° Southwest 187 215 4,000  Level Indianapolis Center
03:51AM 39.8594 -83.5594 237° Southwest 189 217 4,000  Level Indianapolis Center
03:52AM 39.8306 -83.6167 237° Southwest 189 217 4,000  Level Indianapolis Center
03:53AM 39.8017 -83.6756 237° Southwest 191 220 4,000 -60 Level Indianapolis Center
03:54AM 39.7722 -83.7331 236° Southwest 191 220 3,900  Descending Indianapolis Center
03:55AM 39.7375 -83.8017 237° Southwest 192 221 4,000  Climbing Indianapolis Center
03:56AM 39.7119 -83.8475 234° Southwest 191 220 4,000  Level Indianapolis Center
03:57AM 39.6808 -83.9042 235° Southwest 191 220 4,000  Level Indianapolis Center
03:58AM 39.6514 -83.9622 237° Southwest 191 220 4,000  Level Indianapolis Center
03:59AM 39.6244 -84.0217 240° Southwest 190 219 4,000 -60 Level Indianapolis Center
04:00AM 39.5953 -84.0792 237° Southwest 190 219 3,900  Descending Indianapolis Center
04:01AM 39.5658 -84.1353 236° Southwest 189 217 4,000  Climbing Indianapolis Center
04:02AM 39.5367 -84.1956 238° Southwest 189 217 4,000  Level Indianapolis Center